Pagina principale
METAR-TAF:

METAR-TAF

Aeroporti :

Alpnach, Svizzera

latitudine: 46-56-19N, longitudine: 8-17-03E, altezza: 440 m

Osservazione

Il bollettino è stato emesso 38 minuti fa, alle 13:20 UTC
Vento 5 kt da direzioni variabili
Temperature 4°C
Umidità 81%
Pressione 1010 hPa
Visibilità 10 km o più
Poco nuvoloso ad un'altezza di 1900 ft
Nuvoloso ad un'altezza di 2600 ft
Cielo coperto ad un'altezza di 3500 ft
pioggia debole

METAR: LSMA 171320Z VRB05KT 9999 -RA FEW019 BKN026 OVC035 04/01 Q1010 RMK BLU

Ora: 14:58 (13:58 UTC)


TAF: mancante

Osservazioni e previsioni meteorologiche di più di 4000 aeroporti (messaggi METAR e TAF).

Le stazioni disponibili sono rappresentate dai dischi gialli e rossi sulla carta.

Puntare il mouse per vedere il nome della stazione.

Clicca sopra per visualizzare le osservazioni e previsioni meteorologiche.

Per cambiare la mappa : fare clic sui pulsanti verdi con una croce nera per ingrandire, il pulsante verde con un trattino per diminuire, o sulla freccia verde per le mappe adiacenti.


METAR-TAF: